Time;durP1;ratioP1;P1;durP2;ratioP2;P2;SDS_P1;SDS_P2;PMS_P1;PMS_P2;Temp;Humidity;BMP_temperature;BMP_pressure;BME280_temperature;BME280_humidity;BME280_pressure;Samples;Min_cycle;Max_cycle;Signal;HPM_P1;HPM_P2
2022/11/30 00:01:29;;;;;;;;;;;;;;;6.00;100.00;100657.84;6247025;23;19911;-81
2022/11/30 00:03:55;;;;;;;;;;;;;;;6.05;100.00;100671.47;6219788;23;19935;-81
2022/11/30 00:06:24;;;;;;;;;;;;;;;6.08;100.00;100659.84;6246773;23;19911;-82
2022/11/30 00:08:56;;;;;;;;;;;;;;;5.88;100.00;100644.91;6248750;23;19915;-80
2022/11/30 00:11:22;;;;;;;;;;;;;;;5.61;100.00;100651.47;6267781;23;19906;-80
2022/11/30 00:13:48;;;;;;;;;;;;;;;5.77;100.00;100651.03;6250594;23;20239;-82
2022/11/30 00:16:13;;;;;;;;;;;;;;;5.62;100.00;100639.19;6246962;23;19916;-80
2022/11/30 00:18:39;;;;;;;;;;;;;;;5.25;100.00;100641.38;6246833;23;19912;-81
2022/11/30 00:21:07;;;;;;;;;;;;;;;5.09;100.00;100639.16;6246625;23;20294;-81
2022/11/30 00:23:33;;;;;;;;;;;;;;;4.96;100.00;100648.16;6246501;23;19912;-81
2022/11/30 00:26:00;;;;;;;;;;;;;;;4.90;100.00;100649.50;6247592;23;19907;-79
2022/11/30 00:28:25;;;;;;;;;;;;;;;4.75;100.00;100644.59;6247327;23;19986;-82
2022/11/30 00:31:00;;;;;;;;;;;;;;;5.01;100.00;100644.19;6247158;23;20365;-81
2022/11/30 00:33:26;;;;;;;;;;;;;;;4.86;100.00;100649.84;6234692;23;19926;-80
2022/11/30 00:35:55;;;;;;;;;;;;;;;4.85;100.00;100648.16;6267542;23;19984;-81
2022/11/30 00:38:21;;;;;;;;;;;;;;;4.86;100.00;100649.84;6267010;23;19931;-82
2022/11/30 00:40:47;;;;;;;;;;;;;;;5.04;100.00;100649.19;6239509;23;19934;-81
2022/11/30 00:43:12;;;;;;;;;;;;;;;4.99;100.00;100648.75;6263892;23;19994;-81
2022/11/30 00:45:37;;;;;;;;;;;;;;;5.26;100.00;100645.69;6254154;23;19934;-79
2022/11/30 00:48:03;;;;;;;;;;;;;;;5.32;100.00;100647.81;6256503;23;19911;-80
2022/11/30 00:50:28;;;;;;;;;;;;;;;5.32;100.00;100645.16;6231127;23;19911;-80
2022/11/30 00:52:53;;;;;;;;;;;;;;;5.46;100.00;100652.75;6255676;23;19916;-81
2022/11/30 00:55:19;;;;;;;;;;;;;;;5.32;100.00;100650.44;6246945;23;19911;-81
2022/11/30 00:57:44;;;;;;;;;;;;;;;5.26;100.00;100650.94;6246876;23;19917;-81
2022/11/30 01:00:10;;;;;;;;;;;;;;;5.41;100.00;100648.81;6246539;23;19916;-82
2022/11/30 01:02:38;;;;;;;;;;;;;;;5.61;100.00;100650.66;6247612;23;19935;-80
2022/11/30 01:05:04;;;;;;;;;;;;;;;5.82;100.00;100654.13;6246687;23;20251;-81
2022/11/30 01:07:30;;;;;;;;;;;;;;;5.83;100.00;100657.59;6219597;23;19912;-81
2022/11/30 01:09:55;;;;;;;;;;;;;;;5.56;100.00;100658.09;6246515;23;19964;-81
2022/11/30 01:12:20;;;;;;;;;;;;;;;5.02;100.00;100656.38;6246180;23;20220;-81
2022/11/30 01:14:46;;;;;;;;;;;;;;;4.67;100.00;100658.34;6246216;23;19912;-82
2022/11/30 01:17:11;;;;;;;;;;;;;;;4.83;100.00;100663.22;6246068;23;19912;-81
2022/11/30 01:19:37;;;;;;;;;;;;;;;4.89;100.00;100662.72;6246396;23;19912;-80
2022/11/30 01:22:02;;;;;;;;;;;;;;;4.89;100.00;100657.47;6246022;23;19918;-80
2022/11/30 01:24:27;;;;;;;;;;;;;;;5.08;100.00;100648.00;6246013;23;20239;-80
2022/11/30 01:26:53;;;;;;;;;;;;;;;4.93;100.00;100659.75;6246302;23;19912;-80
2022/11/30 01:29:18;;;;;;;;;;;;;;;5.00;100.00;100649.59;6245878;23;19914;-82
2022/11/30 01:31:43;;;;;;;;;;;;;;;5.27;100.00;100652.56;6246449;23;19923;-80
2022/11/30 01:34:09;;;;;;;;;;;;;;;5.46;100.00;100647.50;6246922;23;20235;-79
2022/11/30 01:36:35;;;;;;;;;;;;;;;5.67;100.00;100655.38;6259855;23;19912;-81
2022/11/30 01:39:00;;;;;;;;;;;;;;;5.66;100.00;100657.22;6255073;23;19911;-80
2022/11/30 01:41:30;;;;;;;;;;;;;;;5.68;100.00;100654.44;6246025;23;20018;-80
2022/11/30 01:44:05;;;;;;;;;;;;;;;5.85;100.00;100664.38;6219014;23;19947;-80
2022/11/30 01:46:49;;;;;;;;;;;;;;;5.92;100.00;100659.47;6246206;23;20184;-80
2022/11/30 01:49:27;;;;;;;;;;;;;;;5.80;100.00;100655.22;6246232;23;20330;-80
2022/11/30 01:51:52;;;;;;;;;;;;;;;5.93;100.00;100651.44;6245984;23;19912;-81
2022/11/30 01:54:21;;;;;;;;;;;;;;;5.84;100.00;100649.56;6245855;23;19918;-80
2022/11/30 01:56:50;;;;;;;;;;;;;;;6.03;100.00;100648.91;6219507;23;19982;-81
2022/11/30 01:59:17;;;;;;;;;;;;;;;6.03;100.00;100646.28;6245991;23;19911;-80
2022/11/30 02:01:43;;;;;;;;;;;;;;;6.15;100.00;100645.22;6246257;23;19943;-81
2022/11/30 02:04:11;;;;;;;;;;;;;;;6.16;100.00;100644.25;6246131;23;20228;-79
2022/11/30 02:06:37;;;;;;;;;;;;;;;6.14;100.00;100647.00;6246114;23;19908;-80
2022/11/30 02:09:02;;;;;;;;;;;;;;;6.01;100.00;100641.13;6245956;23;19947;-80
2022/11/30 02:11:27;;;;;;;;;;;;;;;6.12;100.00;100640.22;6245724;23;19907;-80
2022/11/30 02:13:59;;;;;;;;;;;;;;;5.88;100.00;100637.03;6245952;23;20369;-79
2022/11/30 02:16:27;;;;;;;;;;;;;;;5.65;100.00;100631.88;6246019;23;19915;-82
2022/11/30 02:19:11;;;;;;;;;;;;;;;5.51;100.00;100634.81;6245827;23;19975;-80
2022/11/30 02:21:42;;;;;;;;;;;;;;;5.61;100.00;100630.44;6245611;23;20331;-81
2022/11/30 02:24:26;;;;;;;;;;;;;;;5.41;100.00;100628.63;6245427;23;19934;-81
2022/11/30 02:27:17;;;;;;;;;;;;;;;5.17;100.00;100625.41;6245604;23;20349;-81
2022/11/30 02:29:46;;;;;;;;;;;;;;;4.96;100.00;100621.91;6239665;23;19918;-81
2022/11/30 02:32:24;;;;;;;;;;;;;;;4.87;100.00;100623.44;6245791;23;20081;-81
2022/11/30 02:34:51;;;;;;;;;;;;;;;5.12;100.00;100628.41;6245743;23;20200;-81
2022/11/30 02:37:17;;;;;;;;;;;;;;;5.24;100.00;100623.94;6245594;23;19959;-81
2022/11/30 02:39:42;;;;;;;;;;;;;;;5.30;100.00;100630.50;6245513;23;19942;-81
2022/11/30 02:42:12;;;;;;;;;;;;;;;5.16;100.00;100629.00;6245718;23;19926;-81
2022/11/30 02:44:38;;;;;;;;;;;;;;;5.13;100.00;100629.25;6245585;23;19979;-80
2022/11/30 02:47:22;;;;;;;;;;;;;;;5.36;100.00;100633.47;6245894;23;19912;-79
2022/11/30 02:50:02;;;;;;;;;;;;;;;5.52;100.00;100628.59;6247860;23;20350;-80
2022/11/30 02:52:29;;;;;;;;;;;;;;;5.41;100.00;100635.69;6247527;23;20184;-81
2022/11/30 02:54:58;;;;;;;;;;;;;;;5.41;100.00;100638.31;6246010;23;19922;-81
2022/11/30 02:57:24;;;;;;;;;;;;;;;5.39;100.00;100627.94;6247650;23;19921;-80
2022/11/30 02:59:49;;;;;;;;;;;;;;;5.48;100.00;100623.72;6248446;23;19943;-79
2022/11/30 03:02:15;;;;;;;;;;;;;;;5.65;100.00;100617.88;6259916;23;19923;-80
2022/11/30 03:04:40;;;;;;;;;;;;;;;5.77;100.00;100626.56;6261860;23;19912;-81
2022/11/30 03:07:06;;;;;;;;;;;;;;;5.93;100.00;100625.13;6247455;23;20334;-80
2022/11/30 03:09:31;;;;;;;;;;;;;;;5.92;100.00;100631.38;6248008;23;19917;-81
2022/11/30 03:11:56;;;;;;;;;;;;;;;5.98;100.00;100630.03;6247630;23;19961;-81
2022/11/30 03:14:22;;;;;;;;;;;;;;;6.10;100.00;100628.97;6247743;23;20389;-82
2022/11/30 03:16:47;;;;;;;;;;;;;;;6.14;100.00;100633.00;6247796;23;19903;-81
2022/11/30 03:19:13;;;;;;;;;;;;;;;6.09;100.00;100636.06;6247536;23;20331;-81
2022/11/30 03:21:38;;;;;;;;;;;;;;;6.09;100.00;100628.16;6247196;23;19951;-80
2022/11/30 03:24:03;;;;;;;;;;;;;;;6.18;100.00;100634.41;6247386;23;19923;-80
2022/11/30 03:26:29;;;;;;;;;;;;;;;6.01;100.00;100627.97;6220766;23;19958;-81
2022/11/30 03:28:55;;;;;;;;;;;;;;;6.07;100.00;100622.19;6247268;23;19935;-82
2022/11/30 03:31:20;;;;;;;;;;;;;;;6.19;100.00;100620.31;6247095;23;20247;-81
2022/11/30 03:33:45;;;;;;;;;;;;;;;6.17;100.00;100623.06;6247250;23;19911;-80
2022/11/30 03:36:11;;;;;;;;;;;;;;;6.01;100.00;100621.88;6247450;23;20242;-80
2022/11/30 03:38:36;;;;;;;;;;;;;;;6.07;100.00;100618.72;6247256;23;19981;-81
2022/11/30 03:41:15;;;;;;;;;;;;;;;6.09;100.00;100630.78;6247408;23;19912;-81
2022/11/30 03:43:41;;;;;;;;;;;;;;;5.90;100.00;100624.59;6245652;23;19908;-82
2022/11/30 03:46:06;;;;;;;;;;;;;;;5.47;100.00;100630.75;6247073;23;19919;-80
2022/11/30 03:48:32;;;;;;;;;;;;;;;5.27;100.00;100631.56;6247255;23;19915;-80
2022/11/30 03:50:57;;;;;;;;;;;;;;;5.36;100.00;100630.00;6247082;23;19907;-81
2022/11/30 03:53:23;;;;;;;;;;;;;;;5.43;100.00;100632.00;6247466;23;19911;-80
2022/11/30 03:55:56;;;;;;;;;;;;;;;5.70;100.00;100637.56;6247489;23;19966;-80
2022/11/30 03:58:22;;;;;;;;;;;;;;;5.43;100.00;100634.63;6246885;23;20239;-80
2022/11/30 04:00:48;;;;;;;;;;;;;;;5.36;100.00;100630.81;6246942;23;19965;-80
2022/11/30 04:03:16;;;;;;;;;;;;;;;5.22;100.00;100629.31;6248164;23;20356;-81
2022/11/30 04:05:42;;;;;;;;;;;;;;;5.38;100.00;100633.31;6247399;23;19911;-82
2022/11/30 04:08:07;;;;;;;;;;;;;;;5.40;100.00;100631.41;6246998;23;19914;-81
2022/11/30 04:10:33;;;;;;;;;;;;;;;5.24;100.00;100629.19;6247696;23;20033;-79
2022/11/30 04:12:58;;;;;;;;;;;;;;;5.54;100.00;100628.44;6247278;23;20295;-81
2022/11/30 04:15:24;;;;;;;;;;;;;;;5.72;100.00;100632.19;6246885;23;19926;-80
2022/11/30 04:17:49;;;;;;;;;;;;;;;5.73;100.00;100631.25;6220039;23;20250;-79
2022/11/30 04:20:15;;;;;;;;;;;;;;;5.58;100.00;100635.97;6246947;23;20326;-80
2022/11/30 04:22:41;;;;;;;;;;;;;;;5.54;100.00;100638.97;6245192;23;19973;-81
2022/11/30 04:25:06;;;;;;;;;;;;;;;5.64;100.00;100630.19;6247094;23;19907;-79
2022/11/30 04:27:34;;;;;;;;;;;;;;;5.72;100.00;100633.03;6250591;23;19912;-79
2022/11/30 04:29:59;;;;;;;;;;;;;;;5.60;100.00;100630.59;6267582;23;19990;-80
2022/11/30 04:32:25;;;;;;;;;;;;;;;5.70;100.00;100634.94;6247213;23;20290;-81
2022/11/30 04:34:50;;;;;;;;;;;;;;;5.77;100.00;100634.44;6247491;23;20247;-80
2022/11/30 04:37:18;;;;;;;;;;;;;;;5.49;100.00;100630.66;6246488;23;19908;-80
2022/11/30 04:39:44;;;;;;;;;;;;;;;5.55;100.00;100630.97;6246694;23;19997;-81
2022/11/30 04:42:09;;;;;;;;;;;;;;;5.54;100.00;100634.53;6247703;23;19907;-80
2022/11/30 04:44:36;;;;;;;;;;;;;;;5.78;100.00;100628.22;6246601;23;19911;-80
2022/11/30 04:47:01;;;;;;;;;;;;;;;5.77;100.00;100634.44;6246765;23;19946;-81
2022/11/30 04:49:26;;;;;;;;;;;;;;;5.59;100.00;100632.38;6246693;23;20319;-81
2022/11/30 04:51:52;;;;;;;;;;;;;;;5.51;100.00;100634.81;6246761;23;19927;-80
2022/11/30 04:54:18;;;;;;;;;;;;;;;5.76;100.00;100632.78;6246884;23;19912;-80
2022/11/30 04:56:43;;;;;;;;;;;;;;;5.72;100.00;100632.19;6246634;23;19915;-80
2022/11/30 04:59:08;;;;;;;;;;;;;;;5.86;100.00;100631.06;6246407;23;20242;-80
2022/11/30 05:01:34;;;;;;;;;;;;;;;5.62;100.00;100632.13;6246641;23;19922;-81
2022/11/30 05:03:59;;;;;;;;;;;;;;;5.80;100.00;100635.00;6246475;23;19915;-79
2022/11/30 05:06:25;;;;;;;;;;;;;;;6.07;100.00;100637.13;6246571;23;19928;-78
2022/11/30 05:08:50;;;;;;;;;;;;;;;6.05;100.00;100633.81;6246423;23;19908;-82
2022/11/30 05:11:16;;;;;;;;;;;;;;;5.84;100.00;100640.84;6246103;23;19911;-80
2022/11/30 05:13:41;;;;;;;;;;;;;;;6.14;100.00;100639.13;6246144;23;20220;-81
2022/11/30 05:16:09;;;;;;;;;;;;;;;6.08;100.00;100641.44;6246384;23;19965;-81
2022/11/30 05:18:35;;;;;;;;;;;;;;;5.82;100.00;100642.78;6247296;23;19918;-82
2022/11/30 05:21:00;;;;;;;;;;;;;;;6.04;100.00;100643.50;6246787;23;19912;-82
2022/11/30 05:23:25;;;;;;;;;;;;;;;6.07;100.00;100642.38;6246504;23;19907;-80
2022/11/30 05:25:51;;;;;;;;;;;;;;;5.86;100.00;100636.34;6246314;23;20269;-81
2022/11/30 05:28:16;;;;;;;;;;;;;;;5.98;100.00;100644.00;6246337;23;20010;-81
2022/11/30 05:30:42;;;;;;;;;;;;;;;5.51;100.00;100644.47;6254808;23;19959;-85
2022/11/30 05:33:11;;;;;;;;;;;;;;;5.38;100.00;100643.81;6246806;23;19957;-83
2022/11/30 05:35:36;;;;;;;;;;;;;;;5.38;100.00;100649.91;6246730;23;19911;-81
2022/11/30 05:38:01;;;;;;;;;;;;;;;5.48;100.00;100636.84;6245522;23;19912;-82
2022/11/30 05:40:28;;;;;;;;;;;;;;;5.42;100.00;100637.38;6246645;23;19947;-82
2022/11/30 05:42:55;;;;;;;;;;;;;;;5.36;100.00;100636.09;6246977;23;19911;-83
2022/11/30 05:45:20;;;;;;;;;;;;;;;5.30;100.00;100641.84;6247919;23;19934;-84
2022/11/30 05:47:46;;;;;;;;;;;;;;;5.21;100.00;100642.56;6252899;23;19912;-82
2022/11/30 05:50:11;;;;;;;;;;;;;;;5.10;100.00;100640.00;6220300;23;19997;-82
2022/11/30 05:52:37;;;;;;;;;;;;;;;5.07;100.00;100645.50;6253842;23;19912;-80
2022/11/30 05:55:02;;;;;;;;;;;;;;;5.27;100.00;100647.31;6263636;23;19907;-82
2022/11/30 05:57:28;;;;;;;;;;;;;;;5.35;100.00;100638.81;6254886;23;20275;-83
2022/11/30 05:59:54;;;;;;;;;;;;;;;5.28;100.00;100641.13;6217533;23;19954;-84
2022/11/30 06:02:19;;;;;;;;;;;;;;;5.22;100.00;100641.63;6246614;23;20235;-84
2022/11/30 06:04:44;;;;;;;;;;;;;;;5.09;100.00;100644.41;6242819;23;19911;-85
2022/11/30 06:07:10;;;;;;;;;;;;;;;5.07;100.00;100641.06;6244586;23;20246;-82
2022/11/30 06:09:36;;;;;;;;;;;;;;;5.09;100.00;100638.31;6244986;23;20263;-83
2022/11/30 06:12:02;;;;;;;;;;;;;;;5.23;100.00;100640.69;6219621;23;19934;-83
2022/11/30 06:14:27;;;;;;;;;;;;;;;5.30;100.00;100641.84;6246857;23;19912;-82
2022/11/30 06:16:53;;;;;;;;;;;;;;;5.32;100.00;100644.34;6245347;23;20346;-84
2022/11/30 06:19:18;;;;;;;;;;;;;;;5.07;100.00;100637.63;6247829;23;19911;-84
2022/11/30 06:21:43;;;;;;;;;;;;;;;5.00;100.00;100639.91;6246574;23;19915;-85
2022/11/30 06:24:09;;;;;;;;;;;;;;;5.07;100.00;100635.81;6246681;23;19985;-83
2022/11/30 06:26:34;;;;;;;;;;;;;;;5.06;100.00;100641.19;6246196;23;20353;-84
2022/11/30 06:29:00;;;;;;;;;;;;;;;5.06;100.00;100639.41;6246080;23;19950;-82
2022/11/30 06:31:25;;;;;;;;;;;;;;;5.04;100.00;100637.84;6245698;23;19954;-83
2022/11/30 06:33:50;;;;;;;;;;;;;;;4.98;100.00;100641.81;6245836;23;19919;-85
2022/11/30 06:36:20;;;;;;;;;;;;;;;4.91;100.00;100637.16;6246551;23;19922;-88
2022/11/30 06:38:46;;;;;;;;;;;;;;;5.08;100.00;100637.50;6246555;23;20254;-84
2022/11/30 06:41:11;;;;;;;;;;;;;;;5.19;100.00;100644.50;6246305;23;19904;-84
2022/11/30 06:43:38;;;;;;;;;;;;;;;5.29;100.00;100640.16;6246207;23;20339;-83
2022/11/30 06:46:04;;;;;;;;;;;;;;;5.41;100.00;100647.03;6244527;23;20002;-83
2022/11/30 06:48:29;;;;;;;;;;;;;;;5.42;100.00;100643.47;6245154;23;19907;-83
2022/11/30 06:50:54;;;;;;;;;;;;;;;5.33;100.00;100649.47;6244162;23;19915;-83
2022/11/30 06:53:20;;;;;;;;;;;;;;;5.37;100.00;100661.38;6244923;23;19912;-82
2022/11/30 06:55:45;;;;;;;;;;;;;;;5.57;100.00;100660.56;6245108;23;19993;-83
2022/11/30 06:58:11;;;;;;;;;;;;;;;5.35;100.00;100665.09;6245122;23;20246;-84
2022/11/30 07:00:36;;;;;;;;;;;;;;;5.41;100.00;100665.44;6245392;23;19911;-83
2022/11/30 07:03:02;;;;;;;;;;;;;;;5.48;100.00;100665.75;6245975;23;19911;-84
2022/11/30 07:05:28;;;;;;;;;;;;;;;5.51;100.00;100666.34;6246546;23;20290;-83
2022/11/30 07:07:53;;;;;;;;;;;;;;;5.55;100.00;100674.81;6246152;23;19919;-84
2022/11/30 07:10:21;;;;;;;;;;;;;;;5.37;100.00;100668.47;6246164;23;19911;-83
2022/11/30 07:12:47;;;;;;;;;;;;;;;5.46;100.00;100667.69;6246092;23;19990;-83
2022/11/30 07:15:12;;;;;;;;;;;;;;;5.73;100.00;100670.69;6219256;23;20331;-83
2022/11/30 07:17:38;;;;;;;;;;;;;;;5.79;100.00;100674.59;6249569;23;19962;-83
2022/11/30 07:20:03;;;;;;;;;;;;;;;5.94;100.00;100679.44;6265830;23;19923;-83
2022/11/30 07:22:29;;;;;;;;;;;;;;;5.83;100.00;100678.63;6260493;23;20010;-82
2022/11/30 07:27:38;;;;;;;;;;;;;;;5.79;100.00;100679.84;6246991;23;20288;-86
2022/11/30 07:30:04;;;;;;;;;;;;;;;5.75;100.00;100684.53;6249083;23;19943;-83
2022/11/30 07:32:29;;;;;;;;;;;;;;;5.55;100.00;100683.53;6249302;23;19946;-83
2022/11/30 07:34:54;;;;;;;;;;;;;;;5.44;100.00;100686.19;6251371;23;19986;-83
2022/11/30 07:37:20;;;;;;;;;;;;;;;5.62;100.00;100691.75;6252266;23;19918;-83
2022/11/30 07:39:45;;;;;;;;;;;;;;;5.45;100.00;100687.88;6255159;23;19918;-85
2022/11/30 07:42:11;;;;;;;;;;;;;;;5.56;100.00;100689.63;6255748;23;19957;-83
2022/11/30 07:44:36;;;;;;;;;;;;;;;5.83;100.00;100695.25;6255856;23;19911;-83
2022/11/30 07:47:02;;;;;;;;;;;;;;;5.56;100.00;100698.38;6251830;23;19918;-85
2022/11/30 07:49:27;;;;;;;;;;;;;;;5.58;100.00;100699.06;6253190;23;19918;-84
2022/11/30 07:51:52;;;;;;;;;;;;;;;5.49;100.00;100699.81;6225801;23;19935;-83
2022/11/30 07:54:18;;;;;;;;;;;;;;;5.63;100.00;100706.59;6252068;23;19912;-85
2022/11/30 07:56:43;;;;;;;;;;;;;;;5.60;100.00;100699.75;6249983;23;19955;-83
2022/11/30 07:59:08;;;;;;;;;;;;;;;5.53;100.00;100703.03;6248679;23;19912;-84
2022/11/30 08:01:34;;;;;;;;;;;;;;;5.61;100.00;100708.50;6248411;23;19964;-84
2022/11/30 08:04:00;;;;;;;;;;;;;;;5.47;100.00;100706.16;6248220;23;20042;-83
2022/11/30 08:06:27;;;;;;;;;;;;;;;5.38;100.00;100715.63;6246800;23;20255;-85
2022/11/30 08:08:53;;;;;;;;;;;;;;;5.46;100.00;100720.25;6248076;23;19914;-82
2022/11/30 08:11:19;;;;;;;;;;;;;;;5.38;100.00;100722.66;6247984;23;19958;-85
2022/11/30 08:13:45;;;;;;;;;;;;;;;5.50;100.00;100717.25;6195997;23;19912;-83
2022/11/30 08:16:15;;;;;;;;;;;;;;;5.26;100.00;100728.91;6248246;23;19954;-87
2022/11/30 08:18:40;;;;;;;;;;;;;;;5.37;100.00;100727.06;6248064;23;20337;-83
2022/11/30 08:21:07;;;;;;;;;;;;;;;5.12;100.00;100728.22;6247890;23;19939;-83
2022/11/30 08:23:36;;;;;;;;;;;;;;;5.25;100.00;100722.81;6248157;23;19907;-83
2022/11/30 08:26:06;;;;;;;;;;;;;;;5.31;100.00;100717.06;6248550;23;19915;-83
2022/11/30 08:28:34;;;;;;;;;;;;;;;5.36;100.00;100725.44;6246638;23;19919;-84
2022/11/30 08:31:02;;;;;;;;;;;;;;;5.30;100.00;100722.47;6248351;23;20046;-83
2022/11/30 08:33:27;;;;;;;;;;;;;;;5.51;100.00;100729.44;6248363;23;19918;-83
2022/11/30 08:35:52;;;;;;;;;;;;;;;5.38;100.00;100722.66;6248188;23;19911;-85
2022/11/30 08:38:18;;;;;;;;;;;;;;;5.12;100.00;100722.13;6248600;23;20323;-83
2022/11/30 08:40:43;;;;;;;;;;;;;;;5.36;100.00;100722.81;6219422;23;19915;-84
2022/11/30 08:43:09;;;;;;;;;;;;;;;5.37;100.00;100728.91;6252422;23;20239;-83
2022/11/30 08:45:34;;;;;;;;;;;;;;;5.48;100.00;100727.06;6269583;23;19998;-85
2022/11/30 08:47:59;;;;;;;;;;;;;;;5.47;100.00;100732.47;6261818;23;20003;-83
2022/11/30 08:50:25;;;;;;;;;;;;;;;5.53;100.00;100738.06;6220826;23;19919;-83
2022/11/30 08:52:52;;;;;;;;;;;;;;;5.65;100.00;100731.78;6248025;23;19912;-84
2022/11/30 08:55:17;;;;;;;;;;;;;;;5.50;100.00;100738.28;6247718;23;19917;-85
2022/11/30 08:57:43;;;;;;;;;;;;;;;5.82;100.00;100737.44;6248417;23;19992;-84
2022/11/30 09:00:08;;;;;;;;;;;;;;;5.74;100.00;100749.44;6250910;23;19912;-84
2022/11/30 09:02:35;;;;;;;;;;;;;;;5.90;100.00;100746.41;6232411;23;19994;-83
2022/11/30 09:05:01;;;;;;;;;;;;;;;5.48;100.00;100755.97;6268236;23;19911;-83
2022/11/30 09:07:26;;;;;;;;;;;;;;;5.55;100.00;100751.06;6271226;22;19942;-82
2022/11/30 09:09:51;;;;;;;;;;;;;;;5.64;100.00;100750.28;6266805;23;19915;-83
2022/11/30 09:12:17;;;;;;;;;;;;;;;5.76;100.00;100748.47;6249702;23;19915;-83
2022/11/30 09:14:44;;;;;;;;;;;;;;;5.57;100.00;100754.38;6224863;23;19931;-83
2022/11/30 09:17:09;;;;;;;;;;;;;;;5.50;100.00;100756.66;6252035;23;19959;-85
2022/11/30 09:19:35;;;;;;;;;;;;;;;5.56;100.00;100764.09;6252292;23;19911;-84
2022/11/30 09:22:00;;;;;;;;;;;;;;;5.82;100.00;100758.50;6251579;23;19911;-84
2022/11/30 09:24:25;;;;;;;;;;;;;;;6.07;100.00;100760.78;6252280;23;20247;-83
2022/11/30 09:26:53;;;;;;;;;;;;;;;6.10;100.00;100769.25;6251600;23;19911;-83
2022/11/30 09:29:19;;;;;;;;;;;;;;;5.99;100.00;100760.59;6253190;23;19983;-84
2022/11/30 09:31:44;;;;;;;;;;;;;;;5.85;100.00;100763.50;6224923;23;19942;-83
2022/11/30 09:34:10;;;;;;;;;;;;;;;6.17;100.00;100769.59;6251551;23;19908;-84
2022/11/30 09:36:35;;;;;;;;;;;;;;;6.08;100.00;100775.63;6224850;23;20049;-83
2022/11/30 09:39:01;;;;;;;;;;;;;;;6.13;100.00;100773.44;6255104;23;19911;-83
2022/11/30 09:41:45;;;;;;;;;;;;;;;6.06;100.00;100772.28;6258962;23;20239;-82
2022/11/30 09:44:24;;;;;;;;;;;;;;;5.97;100.00;100776.50;6258110;23;19986;-83
2022/11/30 09:46:55;;;;;;;;;;;;;;;5.98;100.00;100779.97;6258123;23;19911;-84
2022/11/30 09:49:26;;;;;;;;;;;;;;;5.94;100.00;100773.28;6229460;23;19951;-87
2022/11/30 09:51:53;;;;;;;;;;;;;;;6.29;100.00;100781.75;6230256;23;20291;-84
2022/11/30 09:54:34;;;;;;;;;;;;;;;6.37;100.00;100779.28;6257658;23;19953;-83
2022/11/30 09:57:18;;;;;;;;;;;;;;;6.55;100.00;100776.91;6257494;23;19922;-83
2022/11/30 09:59:48;;;;;;;;;;;;;;;6.31;100.00;100777.16;6257818;23;19912;-84
2022/11/30 10:02:15;;;;;;;;;;;;;;;6.27;100.00;100772.28;6257890;23;19941;-83
2022/11/30 10:04:40;;;;;;;;;;;;;;;6.47;100.00;100772.28;6258488;23;20243;-83
2022/11/30 10:07:12;;;;;;;;;;;;;;;6.18;100.00;100771.25;6258588;23;19911;-85
2022/11/30 10:09:48;;;;;;;;;;;;;;;6.28;100.00;100766.91;6266346;23;19895;-85
2022/11/30 10:12:18;;;;;;;;;;;;;;;6.63;100.00;100762.09;6270325;23;19960;-85
2022/11/30 10:14:52;;;;;;;;;;;;;;;6.46;100.00;100754.00;6260720;23;19912;-84
2022/11/30 10:17:26;;;;;;;;;;;;;;;6.60;100.00;100758.91;6250054;23;19939;-83
2022/11/30 10:20:01;;;;;;;;;;;;;;;6.91;100.00;100763.22;6257233;23;19911;-85
2022/11/30 10:22:44;;;;;;;;;;;;;;;7.11;100.00;100761.47;6247405;23;20157;-86
2022/11/30 10:25:20;;;;;;;;;;;;;;;7.09;100.00;100755.53;6247071;23;19911;-86
2022/11/30 10:27:50;;;;;;;;;;;;;;;7.15;100.00;100749.72;6246884;23;20220;-83
2022/11/30 10:30:21;;;;;;;;;;;;;;;7.55;100.00;100747.00;6246506;23;19983;-84
2022/11/30 10:32:49;;;;;;;;;;;;;;;7.37;100.00;100752.13;6246803;23;19915;-84
2022/11/30 10:35:20;;;;;;;;;;;;;;;7.31;100.00;100744.75;6246209;23;19912;-84
2022/11/30 10:37:46;;;;;;;;;;;;;;;7.06;100.00;100743.41;6246259;23;19911;-84
2022/11/30 10:40:29;;;;;;;;;;;;;;;7.48;100.00;100736.19;6246769;23;19908;-86
2022/11/30 10:43:03;;;;;;;;;;;;;;;7.50;100.00;100738.66;6246628;23;19911;-87
2022/11/30 10:45:29;;;;;;;;;;;;;;;7.58;100.00;100734.38;6246866;23;19957;-85
2022/11/30 10:47:57;;;;;;;;;;;;;;;7.49;100.00;100729.91;6246451;23;20329;-85
2022/11/30 10:50:26;;;;;;;;;;;;;;;7.65;100.00;100735.50;6247550;23;19912;-85
2022/11/30 10:52:52;;;;;;;;;;;;;;;7.67;100.00;100736.19;6248438;23;19911;-85
2022/11/30 10:55:20;;;;;;;;;;;;;;;7.65;100.00;100734.66;6219580;23;20289;-83
2022/11/30 10:57:47;;;;;;;;;;;;;;;7.93;100.00;100733.81;6246988;23;19911;-84
2022/11/30 11:00:17;;;;;;;;;;;;;;;7.94;100.00;100734.66;6246557;23;19912;-84
2022/11/30 11:02:49;;;;;;;;;;;;;;;7.71;100.00;100729.66;6245590;23;19915;-84
2022/11/30 11:05:22;;;;;;;;;;;;;;;7.76;100.00;100730.06;6221286;23;20334;-83
2022/11/30 11:07:50;;;;;;;;;;;;;;;7.62;100.00;100732.31;6246922;23;19919;-84
2022/11/30 11:10:20;;;;;;;;;;;;;;;7.72;100.00;100735.78;6248631;23;19911;-83
2022/11/30 11:12:50;;;;;;;;;;;;;;;7.64;100.00;100733.00;6249086;23;19911;-85
2022/11/30 11:15:23;;;;;;;;;;;;;;;7.61;100.00;100733.28;6249350;23;19916;-83
2022/11/30 11:17:50;;;;;;;;;;;;;;;7.63;100.00;100728.69;6249652;23;20330;-84
2022/11/30 11:20:26;;;;;;;;;;;;;;;7.98;100.00;100720.22;6249290;23;19907;-83
2022/11/30 11:22:52;;;;;;;;;;;;;;;8.11;100.00;100726.03;6249593;23;20284;-83
2022/11/30 11:25:21;;;;;;;;;;;;;;;8.34;100.00;100726.56;6249117;23;19907;-84
2022/11/30 11:27:54;;;;;;;;;;;;;;;8.32;100.00;100724.91;6249131;23;20220;-85
2022/11/30 11:30:25;;;;;;;;;;;;;;;8.43;100.00;100726.53;6248099;23;19918;-83
2022/11/30 11:32:58;;;;;;;;;;;;;;;8.48;100.00;100718.19;6248343;23;20333;-86
2022/11/30 11:35:36;;;;;;;;;;;;;;;8.43;100.00;100723.91;6251082;23;19942;-85
2022/11/30 11:38:02;;;;;;;;;;;;;;;8.59;100.00;100726.78;6253831;23;19912;-84
2022/11/30 11:40:28;;;;;;;;;;;;;;;8.60;100.00;100725.81;6251177;23;19911;-84
2022/11/30 11:42:57;;;;;;;;;;;;;;;8.56;100.00;100732.34;6248776;23;19951;-86
2022/11/30 11:45:24;;;;;;;;;;;;;;;8.64;100.00;100729.81;6257219;23;19918;-86
2022/11/30 11:48:00;;;;;;;;;;;;;;;8.40;100.00;100720.72;6264264;23;19922;-83
2022/11/30 11:50:36;;;;;;;;;;;;;;;8.67;100.00;100716.31;6267880;23;19951;-85
2022/11/30 11:53:23;;;;;;;;;;;;;;;8.45;100.00;100724.59;6255087;23;19911;-86
2022/11/30 11:55:54;;;;;;;;;;;;;;;8.59;100.00;100724.13;6249954;23;19912;-86
2022/11/30 11:58:46;;;;;;;;;;;;;;;8.37;100.00;100718.38;6251026;23;19927;-80
2022/11/30 12:01:38;;;;;;;;;;;;;;;8.52;100.00;100717.75;6235675;23;19937;-84
2022/11/30 12:04:16;;;;;;;;;;;;;;;8.47;100.00;100713.88;6215856;23;19987;-84
2022/11/30 12:06:43;;;;;;;;;;;;;;;8.46;100.00;100713.06;6248002;23;19941;-85
2022/11/30 12:09:14;;;;;;;;;;;;;;;8.49;100.00;100709.28;6248785;23;19921;-82
2022/11/30 12:11:45;;;;;;;;;;;;;;;8.49;100.00;100709.28;6247442;23;19962;-85
2022/11/30 12:14:12;;;;;;;;;;;;;;;8.35;100.00;100707.97;6249519;23;19912;-85
2022/11/30 12:16:55;;;;;;;;;;;;;;;8.44;100.00;100704.44;6248628;23;19907;-85
2022/11/30 12:19:26;;;;;;;;;;;;;;;8.66;100.00;100701.44;6246868;23;19918;-84
2022/11/30 12:22:07;;;;;;;;;;;;;;;8.52;100.00;100696.63;6247007;23;19923;-85
2022/11/30 12:24:54;;;;;;;;;;;;;;;8.60;100.00;100699.38;6220596;23;19911;-84
2022/11/30 12:27:29;;;;;;;;;;;;;;;8.47;100.00;100696.22;6246772;23;19978;-86
2022/11/30 12:29:57;;;;;;;;;;;;;;;8.54;100.00;100701.78;6247753;23;19947;-83
2022/11/30 12:32:41;;;;;;;;;;;;;;;8.45;100.00;100692.88;6248044;23;19919;-84
2022/11/30 12:35:26;;;;;;;;;;;;;;;8.60;100.00;100691.47;6250184;23;20228;-84
2022/11/30 12:37:51;;;;;;;;;;;;;;;8.34;100.00;100700.16;6249210;23;20282;-82
2022/11/30 12:40:16;;;;;;;;;;;;;;;8.38;100.00;100696.28;6249004;23;19911;-85
2022/11/30 12:42:55;;;;;;;;;;;;;;;8.62;100.00;100683.38;6248949;23;19985;-83